Bryan, Texas
Current Conditions -  °F | °C
As of 5:15 AM on Wednesday 22 Oct 2014 (Local Time) from KCFD Reporting Station
Haze Haze  
Wind Chill: 15°   Ceiling: Unl
Heat Index: 15°   Visibility: 3mi
Dew Point: 14°   Wind: 3mph
Humidity: 96%   Direction: 40°NE
Pressure: 30.07"   Gusts: NA
Location:  30.67°N, 96.37°W
Report Text: KCFD 221015Z AUTO 04003KT 3SM BR CLR 15/14 A3007 RMK AO2 T01500143
Loading
Personal Weather Stations






























Interactive Weather Map New forecast layout! Learn more

10-Day Weather Forecast

Advertisements
Track Severe Weather on mobile